Alamo, Indiana
Current Conditions -  °F | °C
As of 8:15 PM on Sunday 23 Nov 2014 (Local Time) from K4I7 Reporting Station
Moderate Rain Moderate Rain  
Wind Chill: 10°   Ceiling: 600
Heat Index: 10°   Visibility: 2.5mi
Dew Point: 10°   Wind: 6mph
Humidity: 100%   Direction: 130°SE
Pressure: 29.3"   Gusts: NA
Location:  39.98°N, 87.06°W
Report Text: K4I7 240115Z AUTO 13005KT 2 1/2SM RA BKN006 OVC018 10/10 A2930 RMK AO2 P0012
Loading
Personal Weather Stations






























Interactive Weather Map New forecast layout! Learn more

10-Day Weather Forecast

Advertisements
Track Severe Weather on mobile